createdAt,value
2022-08-27T00:02:20.539Z,66.85
2022-08-27T00:04:51.788Z,66.29
2022-08-27T00:07:20.143Z,66.05
2022-08-27T00:09:48.357Z,66.07
2022-08-27T00:12:16.909Z,66.62
2022-08-27T00:14:46.282Z,66.19
2022-08-27T00:17:14.973Z,65.97
2022-08-27T00:19:43.318Z,66.21
2022-08-27T00:22:13.844Z,65.94
2022-08-27T00:24:48.773Z,66.80
2022-08-27T00:27:17.627Z,67.15
2022-08-27T00:29:45.881Z,67.82
2022-08-27T00:32:14.001Z,68.40
2022-08-27T00:34:42.380Z,68.30
2022-08-27T00:37:10.922Z,67.60
2022-08-27T00:39:40.523Z,67.68
2022-08-27T00:42:10.242Z,67.51
2022-08-27T00:44:38.930Z,67.49
2022-08-27T00:47:09.442Z,67.90
2022-08-27T00:49:41.022Z,67.91
2022-08-27T00:52:14.596Z,67.31
2022-08-27T00:54:44.481Z,67.59
2022-08-27T00:57:12.840Z,67.78
2022-08-27T00:59:41.708Z,67.14
2022-08-27T01:02:27.147Z,66.75
2022-08-27T01:05:00.152Z,66.67
2022-08-27T01:07:29.830Z,66.41
2022-08-27T01:10:01.748Z,66.15
2022-08-27T01:12:32.175Z,66.12
2022-08-27T01:15:02.051Z,66.29
2022-08-27T01:17:30.973Z,66.87
2022-08-27T01:20:02.481Z,66.79
2022-08-27T01:22:39.697Z,66.51
2022-08-27T01:25:12.577Z,66.12
2022-08-27T01:27:41.864Z,66.34
2022-08-27T01:30:11.728Z,66.27
2022-08-27T01:32:40.587Z,66.33
2022-08-27T01:35:10.613Z,65.91
2022-08-27T01:37:39.306Z,65.99
2022-08-27T01:40:13.477Z,65.96
2022-08-27T01:42:43.328Z,66.66
2022-08-27T01:45:14.675Z,67.04
2022-08-27T01:47:43.356Z,67.31
2022-08-27T01:50:15.077Z,67.13
2022-08-27T01:52:42.868Z,67.05
2022-08-27T01:55:15.428Z,66.84
2022-08-27T01:57:44.474Z,66.58
2022-08-27T02:00:15.795Z,65.92
2022-08-27T02:02:44.792Z,65.98
2022-08-27T02:05:13.218Z,66.72
2022-08-27T02:07:42.434Z,67.03
2022-08-27T02:10:15.415Z,66.67
2022-08-27T02:12:43.717Z,66.34
2022-08-27T02:15:13.347Z,66.29
2022-08-27T02:17:41.546Z,66.38
2022-08-27T02:20:11.012Z,66.38
2022-08-27T02:22:39.563Z,66.37
2022-08-27T02:25:10.493Z,66.99
2022-08-27T02:27:41.535Z,66.58
2022-08-27T02:30:13.074Z,66.61
2022-08-27T02:32:41.136Z,67.00
2022-08-27T02:35:10.322Z,67.55
2022-08-27T02:37:38.249Z,67.29
2022-08-27T02:40:07.359Z,67.38
2022-08-27T02:42:35.524Z,67.56
2022-08-27T02:45:06.595Z,67.27
2022-08-27T02:47:35.113Z,66.86
2022-08-27T02:50:03.517Z,66.80
2022-08-27T02:52:31.760Z,67.41
2022-08-27T02:55:00.472Z,67.23
2022-08-27T02:57:28.938Z,67.03
2022-08-27T03:00:00.168Z,67.60
2022-08-27T03:02:29.775Z,67.82
2022-08-27T03:04:57.818Z,68.11
2022-08-27T03:07:26.369Z,68.08
2022-08-27T03:09:54.756Z,67.59
2022-08-27T03:12:24.759Z,67.26
2022-08-27T03:14:53.008Z,67.03
2022-08-27T03:17:38.838Z,66.85
2022-08-27T03:20:11.185Z,66.31
2022-08-27T03:22:40.234Z,66.15
2022-08-27T03:25:09.365Z,66.44
2022-08-27T03:27:37.485Z,66.76
2022-08-27T03:30:06.557Z,66.53
2022-08-27T03:32:34.500Z,66.14
2022-08-27T03:35:02.482Z,66.59
2022-08-27T03:37:32.362Z,67.49
2022-08-27T03:40:00.511Z,67.67
2022-08-27T03:42:28.876Z,67.43
2022-08-27T03:44:57.396Z,67.01
2022-08-27T03:47:25.506Z,66.93
2022-08-27T03:49:53.451Z,67.28
2022-08-27T03:52:21.411Z,67.21
2022-08-27T03:54:50.948Z,67.56
2022-08-27T03:57:18.961Z,68.24
2022-08-27T03:59:46.961Z,68.39
2022-08-27T04:02:16.676Z,68.30
2022-08-27T04:04:44.997Z,68.51
2022-08-27T04:07:13.309Z,68.94
2022-08-27T04:09:41.181Z,69.07
2022-08-27T04:12:11.545Z,69.28
2022-08-27T04:14:40.011Z,69.10
2022-08-27T04:17:08.302Z,68.81
2022-08-27T04:19:36.651Z,68.38
2022-08-27T04:22:07.659Z,67.86
2022-08-27T04:24:37.143Z,67.57
2022-08-27T04:27:06.583Z,67.15
2022-08-27T04:29:36.233Z,67.28
2022-08-27T04:32:05.206Z,67.22
2022-08-27T04:34:33.275Z,66.86
2022-08-27T04:37:01.471Z,66.51
2022-08-27T04:39:30.813Z,66.54
2022-08-27T04:42:00.510Z,66.63
2022-08-27T04:44:30.726Z,66.75
2022-08-27T04:47:01.787Z,66.75
2022-08-27T04:49:33.528Z,66.92
2022-08-27T04:52:02.906Z,66.69
2022-08-27T04:54:32.891Z,66.31
2022-08-27T04:57:01.560Z,65.88
2022-08-27T04:59:30.063Z,65.71
2022-08-27T05:03:07.678Z,65.93
2022-08-27T05:05:37.806Z,65.71
2022-08-27T05:08:13.161Z,65.71
2022-08-27T05:10:42.776Z,65.98
2022-08-27T05:13:11.030Z,65.77
2022-08-27T05:15:45.798Z,65.49
2022-08-27T05:18:18.780Z,65.44
2022-08-27T05:20:50.198Z,64.58
2022-08-27T05:23:19.755Z,64.10
2022-08-27T05:25:50.249Z,63.94
2022-08-27T05:28:21.703Z,63.29
2022-08-27T05:31:04.008Z,63.91
2022-08-27T05:33:32.492Z,62.97
2022-08-27T05:36:02.933Z,62.86
2022-08-27T05:38:32.806Z,62.55
2022-08-27T05:41:07.581Z,62.44
2022-08-27T05:43:36.397Z,62.50
2022-08-27T05:46:06.738Z,61.82
2022-08-27T05:48:36.301Z,61.37
2022-08-27T05:51:13.625Z,60.94
2022-08-27T05:53:49.309Z,61.11
2022-08-27T05:56:20.391Z,59.93
2022-08-27T05:59:06.760Z,59.82
2022-08-27T06:01:39.326Z,59.58
2022-08-27T06:04:07.335Z,58.90
2022-08-27T06:06:37.561Z,58.44
2022-08-27T06:09:06.406Z,57.97
2022-08-27T06:11:34.182Z,57.22
2022-08-27T06:14:01.956Z,57.37
2022-08-27T06:16:29.974Z,57.25
2022-08-27T06:18:58.969Z,57.17
2022-08-27T06:21:27.299Z,56.63
2022-08-27T06:23:56.852Z,55.98
2022-08-27T06:26:26.552Z,55.75
2022-08-27T06:28:55.205Z,55.10
2022-08-27T06:31:24.594Z,55.32
2022-08-27T06:33:53.191Z,55.18
2022-08-27T06:36:23.374Z,54.88
2022-08-27T06:38:53.668Z,54.20
2022-08-27T06:41:24.583Z,53.95
2022-08-27T06:43:53.773Z,53.60
2022-08-27T06:46:23.247Z,53.37
2022-08-27T06:48:52.515Z,52.45
2022-08-27T06:51:24.577Z,52.17
2022-08-27T06:53:52.619Z,51.81
2022-08-27T06:56:22.674Z,51.14
2022-08-27T06:58:54.090Z,51.60
2022-08-27T07:01:22.467Z,51.29
2022-08-27T07:03:50.688Z,50.51
2022-08-27T07:06:19.275Z,50.41
2022-08-27T07:08:53.244Z,49.76
2022-08-27T07:11:22.910Z,49.21
2022-08-27T07:13:51.296Z,49.65
2022-08-27T07:16:23.235Z,49.71
2022-08-27T07:18:51.649Z,49.35
2022-08-27T07:21:20.925Z,48.84
2022-08-27T07:23:49.952Z,48.35
2022-08-27T07:26:19.418Z,48.50
2022-08-27T07:28:50.142Z,48.42
2022-08-27T07:31:20.715Z,47.21
2022-08-27T07:33:52.778Z,47.13
2022-08-27T07:36:20.947Z,46.78
2022-08-27T07:38:56.629Z,46.54
2022-08-27T07:41:30.511Z,45.55
2022-08-27T07:44:18.409Z,45.07
2022-08-27T07:46:48.803Z,44.70
2022-08-27T07:49:17.400Z,44.32
2022-08-27T07:51:46.277Z,43.19
2022-08-27T07:54:14.390Z,43.30
2022-08-27T07:56:42.652Z,42.79
2022-08-27T07:59:24.071Z,43.45
2022-08-27T08:01:52.981Z,43.57
2022-08-27T08:04:22.634Z,43.67
2022-08-27T08:06:51.452Z,43.14
2022-08-27T08:09:19.454Z,43.92
2022-08-27T08:11:47.235Z,43.43
2022-08-27T08:14:15.131Z,44.01
2022-08-27T08:16:44.453Z,42.88
2022-08-27T08:19:12.576Z,42.18
2022-08-27T08:21:40.315Z,41.73
2022-08-27T08:24:08.775Z,41.53
2022-08-27T08:26:36.933Z,41.32
2022-08-27T08:29:05.419Z,41.46
2022-08-27T08:31:33.466Z,41.33
2022-08-27T08:34:02.557Z,41.32
2022-08-27T08:36:30.341Z,42.29
2022-08-27T08:38:58.446Z,41.61
2022-08-27T08:41:36.904Z,41.94
2022-08-27T08:44:09.628Z,41.61
2022-08-27T08:46:41.392Z,41.77
2022-08-27T08:49:18.200Z,41.00
2022-08-27T08:51:47.439Z,40.72
2022-08-27T08:54:17.318Z,40.82
2022-08-27T08:56:54.774Z,40.39
2022-08-27T08:59:29.535Z,40.96
2022-08-27T09:01:58.180Z,40.43
2022-08-27T09:04:28.452Z,41.41
2022-08-27T09:06:59.829Z,40.88
2022-08-27T09:09:32.887Z,40.36
2022-08-27T09:12:02.557Z,41.56
2022-08-27T09:14:36.669Z,41.96
2022-08-27T09:17:10.712Z,41.78
2022-08-27T09:19:41.641Z,42.04
2022-08-27T09:22:15.611Z,42.44
2022-08-27T09:24:53.904Z,41.38
2022-08-27T09:27:22.493Z,41.00
2022-08-27T09:29:52.947Z,40.85
2022-08-27T09:32:25.195Z,38.89
2022-08-27T09:34:58.727Z,39.98
2022-08-27T09:37:33.825Z,40.81
2022-08-27T09:40:13.244Z,39.98
2022-08-27T09:42:43.897Z,38.38
2022-08-27T09:45:16.614Z,37.22
2022-08-27T09:47:46.103Z,36.75
2022-08-27T09:50:18.452Z,36.60
2022-08-27T09:52:51.538Z,36.35
2022-08-27T09:55:38.504Z,36.13
2022-08-27T09:58:09.506Z,35.66
2022-08-27T10:00:38.627Z,35.41
2022-08-27T10:03:07.379Z,33.84
2022-08-27T10:05:40.506Z,33.26
2022-08-27T10:08:15.992Z,32.97
2022-08-27T10:10:48.551Z,32.75
2022-08-27T10:13:21.327Z,33.14
2022-08-27T10:16:11.302Z,31.79
2022-08-27T10:18:46.266Z,33.41
2022-08-27T10:21:21.819Z,33.49
2022-08-27T10:24:01.537Z,32.53
2022-08-27T10:26:35.960Z,31.95
2022-08-27T10:29:10.812Z,31.58
2022-08-27T10:31:42.141Z,31.25
2022-08-27T10:34:21.118Z,31.47
2022-08-27T10:36:58.435Z,31.15
2022-08-27T10:39:37.427Z,31.15
2022-08-27T10:42:12.230Z,30.95
2022-08-27T10:44:51.324Z,30.74
2022-08-27T10:47:46.250Z,29.85
2022-08-27T10:50:25.672Z,28.93
2022-08-27T10:52:57.959Z,28.79
2022-08-27T10:55:30.146Z,28.30
2022-08-27T10:58:25.057Z,27.21
2022-08-27T11:00:59.508Z,28.48
2022-08-27T11:03:32.251Z,29.69
2022-08-27T11:06:04.937Z,29.29
2022-08-27T11:08:41.054Z,29.37
2022-08-27T11:11:51.794Z,28.04
2022-08-27T11:14:01.272Z,29.70
2022-08-27T11:16:34.850Z,29.32
2022-08-27T11:19:07.264Z,27.58
2022-08-27T11:21:40.140Z,28.16
2022-08-27T11:24:18.739Z,28.87
2022-08-27T11:26:47.732Z,28.89
2022-08-27T11:29:20.860Z,29.12
2022-08-27T11:31:53.860Z,29.47
2022-08-27T11:34:26.951Z,29.44
2022-08-27T11:37:12.926Z,29.30
2022-08-27T11:39:59.689Z,29.09
2022-08-27T11:42:39.742Z,29.18
2022-08-27T11:45:11.147Z,29.03
2022-08-27T11:47:39.820Z,28.21
2022-08-27T11:50:18.486Z,30.23
2022-08-27T11:52:58.742Z,29.57
2022-08-27T11:55:31.621Z,28.34
2022-08-27T11:58:11.563Z,28.82
2022-08-27T12:00:44.617Z,28.45
2022-08-27T12:03:30.740Z,28.06
2022-08-27T12:06:20.388Z,27.86
2022-08-27T12:08:48.664Z,28.41
2022-08-27T12:11:26.752Z,28.57
2022-08-27T12:13:58.440Z,28.45
2022-08-27T12:16:33.413Z,27.98
2022-08-27T12:19:09.553Z,28.21
2022-08-27T12:21:47.596Z,27.94
2022-08-27T12:24:42.800Z,28.34
2022-08-27T12:27:29.621Z,27.81
2022-08-27T12:30:00.358Z,27.92
2022-08-27T12:32:31.247Z,27.27
2022-08-27T12:35:12.566Z,27.45
2022-08-27T12:37:41.236Z,26.90
2022-08-27T12:40:20.751Z,26.72
2022-08-27T12:43:09.263Z,27.04
2022-08-27T12:45:45.566Z,26.70
2022-08-27T12:48:13.480Z,25.86
2022-08-27T12:50:41.631Z,26.04
2022-08-27T12:53:25.348Z,26.72
2022-08-27T12:56:25.871Z,25.89
2022-08-27T12:59:01.097Z,26.86
2022-08-27T13:01:43.230Z,25.90
2022-08-27T13:04:20.525Z,25.04
2022-08-27T13:06:48.662Z,25.81
2022-08-27T13:09:16.943Z,25.55
2022-08-27T13:11:49.753Z,25.39
2022-08-27T13:14:21.418Z,25.13
2022-08-27T13:16:52.843Z,25.36
2022-08-27T13:19:24.461Z,25.23
2022-08-27T13:21:54.381Z,24.53
2022-08-27T13:24:29.495Z,24.81
2022-08-27T13:26:58.765Z,23.99
2022-08-27T13:29:29.419Z,24.54
2022-08-27T13:32:04.786Z,24.54
2022-08-27T13:34:38.491Z,24.25
2022-08-27T13:37:07.706Z,24.20
2022-08-27T13:39:36.296Z,24.22
2022-08-27T13:42:07.769Z,23.91
2022-08-27T13:44:40.663Z,24.45
2022-08-27T13:47:11.594Z,24.14
2022-08-27T13:49:44.922Z,24.43
2022-08-27T13:52:31.486Z,24.16
2022-08-27T13:55:05.969Z,23.46
2022-08-27T13:57:43.128Z,24.03
2022-08-27T14:00:18.692Z,23.87
2022-08-27T14:05:49.961Z,24.10
2022-08-27T14:08:20.504Z,24.10
2022-08-27T14:10:51.697Z,24.10
2022-08-27T14:13:23.523Z,24.74
2022-08-27T14:15:59.182Z,24.69
2022-08-27T14:18:48.474Z,24.18
2022-08-27T14:21:24.538Z,25.67
2022-08-27T14:23:54.251Z,24.87
2022-08-27T14:26:23.244Z,24.86
2022-08-27T14:28:51.843Z,24.43
2022-08-27T14:31:21.567Z,23.87
2022-08-27T14:33:52.086Z,24.25
2022-08-27T14:36:19.999Z,24.40
2022-08-27T14:38:49.987Z,24.45
2022-08-27T14:41:18.757Z,24.85
2022-08-27T14:43:50.003Z,24.04
2022-08-27T14:46:41.375Z,24.53
2022-08-27T14:49:15.975Z,24.41
2022-08-27T14:51:47.171Z,23.78
2022-08-27T14:54:16.947Z,24.19
2022-08-27T14:56:48.552Z,23.99
2022-08-27T14:59:19.200Z,23.60
2022-08-27T15:01:49.543Z,23.74
2022-08-27T15:04:20.169Z,23.72
2022-08-27T15:06:49.128Z,23.48
2022-08-27T15:09:19.321Z,23.74
2022-08-27T15:11:49.589Z,23.78
2022-08-27T15:14:21.460Z,23.76
2022-08-27T15:16:53.271Z,23.74
2022-08-27T15:19:23.493Z,23.84
2022-08-27T15:21:53.741Z,23.63
2022-08-27T15:24:26.039Z,23.82
2022-08-27T15:26:57.950Z,24.04
2022-08-27T15:29:29.779Z,23.75
2022-08-27T15:31:59.626Z,24.46
2022-08-27T15:34:28.418Z,23.94
2022-08-27T15:36:58.507Z,24.39
2022-08-27T15:39:26.808Z,24.25
2022-08-27T15:42:06.368Z,24.66
2022-08-27T15:44:36.177Z,24.75
2022-08-27T15:47:06.825Z,24.93
2022-08-27T15:49:44.758Z,25.28
2022-08-27T15:52:16.272Z,25.97
2022-08-27T15:54:53.590Z,26.33
2022-08-27T15:57:52.311Z,26.10
2022-08-27T16:00:22.894Z,26.67
2022-08-27T16:02:52.960Z,26.40
2022-08-27T16:05:22.140Z,26.87
2022-08-27T16:07:50.678Z,26.63
2022-08-27T16:10:19.047Z,27.10
2022-08-27T16:12:47.433Z,27.23
2022-08-27T16:15:15.719Z,27.17
2022-08-27T16:17:44.716Z,27.48
2022-08-27T16:20:17.017Z,28.34
2022-08-27T16:22:46.082Z,28.60
2022-08-27T16:25:18.419Z,28.44
2022-08-27T16:28:01.169Z,28.77
2022-08-27T16:30:32.671Z,29.14
2022-08-27T16:33:01.467Z,29.43
2022-08-27T16:35:31.157Z,29.64
2022-08-27T16:37:59.635Z,30.36
2022-08-27T16:40:27.677Z,30.79
2022-08-27T16:42:58.553Z,31.02
2022-08-27T16:45:26.268Z,31.17
2022-08-27T16:48:11.674Z,32.30
2022-08-27T16:50:42.199Z,33.19
2022-08-27T16:53:13.355Z,34.13
2022-08-27T16:55:42.428Z,34.81
2022-08-27T16:58:14.445Z,35.65
2022-08-27T17:00:42.581Z,35.75
2022-08-27T17:03:10.581Z,35.73
2022-08-27T17:05:38.860Z,37.16
2022-08-27T17:08:11.873Z,39.10
2022-08-27T17:10:43.605Z,38.89
2022-08-27T17:13:11.525Z,39.80
2022-08-27T17:15:40.140Z,40.02
2022-08-27T17:18:08.674Z,41.44
2022-08-27T17:20:37.537Z,41.91
2022-08-27T17:23:08.633Z,42.92
2022-08-27T17:25:37.169Z,42.95
2022-08-27T17:28:05.428Z,44.01
2022-08-27T17:30:34.814Z,43.30
2022-08-27T17:33:02.803Z,43.49
2022-08-27T17:35:31.212Z,44.44
2022-08-27T17:37:59.741Z,46.83
2022-08-27T17:40:31.518Z,48.22
2022-08-27T17:43:00.125Z,47.87
2022-08-27T17:45:27.996Z,47.82
2022-08-27T17:47:55.931Z,48.12
2022-08-27T17:50:23.679Z,47.28
2022-08-27T17:52:51.414Z,48.20
2022-08-27T17:55:19.200Z,47.61
2022-08-27T17:57:48.302Z,47.60
2022-08-27T18:00:16.686Z,48.57
2022-08-27T18:02:46.276Z,49.52
2022-08-27T18:05:14.810Z,49.94
2022-08-27T18:07:43.580Z,49.46
2022-08-27T18:10:15.193Z,49.84
2022-08-27T18:12:43.751Z,50.29
2022-08-27T18:15:17.855Z,50.55
2022-08-27T18:17:45.583Z,51.12
2022-08-27T18:20:14.584Z,50.60
2022-08-27T18:22:48.523Z,51.02
2022-08-27T18:25:17.854Z,51.03
2022-08-27T18:27:46.532Z,51.49
2022-08-27T18:30:16.307Z,52.31
2022-08-27T18:32:44.264Z,52.28
2022-08-27T18:35:17.374Z,52.51
2022-08-27T18:37:45.456Z,52.80
2022-08-27T18:40:14.727Z,53.46
2022-08-27T18:42:43.540Z,53.22
2022-08-27T18:45:13.563Z,53.02
2022-08-27T18:47:43.373Z,52.48
2022-08-27T18:50:17.374Z,52.24
2022-08-27T18:52:46.585Z,51.96
2022-08-27T18:55:17.381Z,52.52
2022-08-27T18:57:45.138Z,52.08
2022-08-27T19:00:17.273Z,52.42
2022-08-27T19:02:51.415Z,52.93
2022-08-27T19:05:23.418Z,53.53
2022-08-27T19:07:51.348Z,52.79
2022-08-27T19:10:19.068Z,53.44
2022-08-27T19:12:48.116Z,53.44
2022-08-27T19:15:16.427Z,54.14
2022-08-27T19:17:49.809Z,53.94
2022-08-27T19:20:18.557Z,54.45
2022-08-27T19:22:46.551Z,53.98
2022-08-27T19:25:16.168Z,53.02
2022-08-27T19:27:44.219Z,51.72
2022-08-27T19:30:13.858Z,51.74
2022-08-27T19:32:42.092Z,51.75
2022-08-27T19:35:15.097Z,50.79
2022-08-27T19:37:48.069Z,54.11
2022-08-27T19:40:21.879Z,56.42
2022-08-27T19:42:50.250Z,56.60
2022-08-27T19:45:23.698Z,56.61
2022-08-27T19:47:52.462Z,57.01
2022-08-27T19:50:22.426Z,56.96
2022-08-27T19:52:50.574Z,56.74
2022-08-27T19:55:19.787Z,57.22
2022-08-27T19:57:48.183Z,58.50
2022-08-27T20:00:18.990Z,58.40
2022-08-27T20:02:47.078Z,58.07
2022-08-27T20:05:19.468Z,57.47
2022-08-27T20:07:49.043Z,56.79
2022-08-27T20:10:17.130Z,56.50
2022-08-27T20:12:45.938Z,55.52
2022-08-27T20:15:16.319Z,53.97
2022-08-27T20:17:45.309Z,53.24
2022-08-27T20:20:13.530Z,53.87
2022-08-27T20:22:41.449Z,51.98
2022-08-27T20:25:13.247Z,50.86
2022-08-27T20:27:41.837Z,51.03
2022-08-27T20:30:12.323Z,50.41
2022-08-27T20:32:40.111Z,52.20
2022-08-27T20:35:17.235Z,52.26
2022-08-27T20:37:46.256Z,54.45
2022-08-27T20:40:20.111Z,56.84
2022-08-27T20:42:47.827Z,58.30
2022-08-27T20:45:16.786Z,58.55
2022-08-27T20:47:46.114Z,59.04
2022-08-27T20:50:14.406Z,58.53
2022-08-27T20:52:42.682Z,59.27
2022-08-27T20:55:12.106Z,57.88
2022-08-27T20:58:06.494Z,58.41
2022-08-27T21:00:35.818Z,58.36
2022-08-27T21:03:03.597Z,59.13
2022-08-27T21:05:33.817Z,59.40
2022-08-27T21:08:01.718Z,60.06
2022-08-27T21:10:29.502Z,59.82
2022-08-27T21:12:59.795Z,60.49
2022-08-27T21:15:30.131Z,60.22
2022-08-27T21:17:57.918Z,61.04
2022-08-27T21:20:25.604Z,60.65
2022-08-27T21:22:53.418Z,60.26
2022-08-27T21:25:24.772Z,60.09
2022-08-27T21:27:52.993Z,60.11
2022-08-27T21:30:22.705Z,59.92
2022-08-27T21:32:50.424Z,59.82
2022-08-27T21:35:18.188Z,59.89
2022-08-27T21:37:47.914Z,60.43
2022-08-27T21:40:16.598Z,60.36
2022-08-27T21:42:44.560Z,60.31
2022-08-27T21:45:12.390Z,60.45
2022-08-27T21:47:41.760Z,60.13
2022-08-27T21:50:11.702Z,60.76
2022-08-27T21:52:39.643Z,61.23
2022-08-27T21:55:08.417Z,61.18
2022-08-27T21:57:42.299Z,60.88
2022-08-27T22:00:18.613Z,61.88
2022-08-27T22:02:48.020Z,62.51
2022-08-27T22:05:15.831Z,62.55
2022-08-27T22:07:43.544Z,63.38
2022-08-27T22:10:11.506Z,63.01
2022-08-27T22:12:39.343Z,62.24
2022-08-27T22:15:09.460Z,61.49
2022-08-27T22:17:37.428Z,61.19
2022-08-27T22:20:09.497Z,60.09
2022-08-27T22:22:37.033Z,59.57
2022-08-27T22:25:06.789Z,60.22
2022-08-27T22:27:34.624Z,59.30
2022-08-27T22:30:02.352Z,58.69
2022-08-27T22:32:30.136Z,57.38
2022-08-27T22:34:57.822Z,58.26
2022-08-27T22:37:27.058Z,58.40
2022-08-27T22:39:55.179Z,57.73
2022-08-27T22:42:23.383Z,56.22
2022-08-27T22:44:53.084Z,55.06
2022-08-27T22:47:20.780Z,56.26
2022-08-27T22:49:48.547Z,55.84
2022-08-27T23:23:29.744Z,53.17
2022-08-27T23:26:16.545Z,53.04
2022-08-27T23:28:44.638Z,53.19
2022-08-27T23:31:12.977Z,53.21
2022-08-27T23:33:41.072Z,53.43
2022-08-27T23:36:09.933Z,53.66
2022-08-27T23:38:39.219Z,53.41
2022-08-27T23:41:07.956Z,53.65
2022-08-27T23:43:35.643Z,52.95
2022-08-27T23:46:03.502Z,52.69
2022-08-27T23:48:31.379Z,52.75
2022-08-27T23:50:59.058Z,52.54
2022-08-27T23:53:27.426Z,52.52
2022-08-27T23:55:56.629Z,52.55
2022-08-27T23:58:24.390Z,52.66
